Airfield :
LOGIN :

Register | Disclaimer

   EN    FR    IT 

 










Legend :    VFR   Marginal VFR   IFR   Intensive IFR   Very Intensive IFR
Visi :
Ceiling :
>= 8 km
>= 3000ft
5 to 8 km
1000 to 3000 ft
1500m to 5 km
500 to 1000 ft
800 to 1500m
200 to 500 ft
< 800m
< 200 ft
Symbols :   Thunderstorms  Fog  Heavy snow  Heavy precipitations  Wind > 20 kt
SIGMETs :     Misc.  Thunderstorms  Icing  Turbulence  Mountain Waves  Volcanic Ashes






- Airport Elevation : 187 ft


LPMR - Monte Real Air Base

CURRENT METAR :
  • 201400Z 30012KT 270V340 9999 BKN025 18/11 Q1016

EXPIRED METARs :
  • 201300Z 33011KT 9999 SCT022 18/10 Q1016
  • 201200Z 32012KT 290V360 9999 BKN022 18/11 Q1016
  • 201100Z 32010KT 280V360 9999 BKN022 17/11 Q1016
  • 201000Z 33008KT 280V360 9999 SCT020 17/11 Q1016

TAF TAF LPMR
Valid from the 20 at 12:00 until the 21 at 12:00 UTC


201100Z 2012/2112 33012KT 9999 SCT020
PROB30
TEMPO 2012/2016 7000 -SHRA BKN018
BECMG 2020/2022 33005KT SCT014 BKN020
TEMPO 2021/2112 6000 -RADZ SCT007 BKN012
BECMG 2110/2112 33012KT



MET'MAP, your aeronautical weather chart ! - Copyright ORBIFLY December 2007 - Disclaimer

ORBIFLY MET'MAP TEAM :

Programming & Development : Alexandra Zaïnal
Original concept : Baudouin d'Aumeries
Technical & hardware support : Manuel Goepfert
Assistance : Marc-Olivier Méhu




SOURCES & CREDITS :

   NOAA